Amor, Minnesota
Current Conditions -  °F | °C
As of 2:14 AM on Friday 28 Nov 2014 (Local Time) from KFFM Reporting Station
Overcast Overcast  
Wind Chill: -7°   Ceiling: 4500
Heat Index:   Visibility: 10mi
Dew Point:   Wind: 13mph
Humidity: 73%   Direction: 140°SE
Pressure: 30.05"   Gusts: NA
Location:  46.3166°N, 95.7183°W
Report Text: KFFM 280814Z AUTO 14011KT 10SM OVC045 M13/M17 A3005 RMK AO2
Loading
Personal Weather Stations






























Interactive Weather Map New forecast layout! Learn more

10-Day Weather Forecast

Advertisements
Track Severe Weather on mobile